createdAt,value
2023-03-23T15:58:12.003Z,51.93
2023-03-23T16:00:40.308Z,52.49
2023-03-23T16:03:11.633Z,54.77
2023-03-23T16:05:38.873Z,55.61
2023-03-23T16:08:06.373Z,55.12
2023-03-23T16:10:33.491Z,54.45
2023-03-23T16:13:00.514Z,54.74
2023-03-23T16:15:27.632Z,54.87
2023-03-23T16:17:54.561Z,54.83
2023-03-23T16:20:23.727Z,54.82
2023-03-23T16:22:52.263Z,54.56
2023-03-23T16:25:19.966Z,54.54
2023-03-23T16:27:52.480Z,54.78
2023-03-23T16:30:26.062Z,54.51
2023-03-23T16:32:56.156Z,54.74
2023-03-23T16:35:26.328Z,54.77
2023-03-23T16:38:08.374Z,54.45
2023-03-23T16:40:37.366Z,54.72
2023-03-23T16:43:08.388Z,53.71
2023-03-23T16:45:38.296Z,54.11
2023-03-23T16:48:06.385Z,54.24
2023-03-23T16:50:34.779Z,54.87
2023-03-23T16:53:02.123Z,55.04
2023-03-23T16:55:31.489Z,55.29
2023-03-23T16:58:13.196Z,56.44
2023-03-23T17:00:43.960Z,56.75
2023-03-23T17:03:11.581Z,56.88
2023-03-23T17:05:38.704Z,57.10
2023-03-23T17:08:06.222Z,57.17
2023-03-23T17:10:33.474Z,57.33
2023-03-23T17:13:01.191Z,57.54
2023-03-23T17:15:28.836Z,57.02
2023-03-23T17:17:56.112Z,56.72
2023-03-23T17:20:23.790Z,56.44
2023-03-23T17:22:51.166Z,56.63
2023-03-23T17:25:18.094Z,56.68
2023-03-23T17:27:45.049Z,56.88
2023-03-23T17:30:12.701Z,56.59
2023-03-23T17:32:39.962Z,56.75
2023-03-23T17:35:07.631Z,56.90
2023-03-23T17:37:35.134Z,57.08
2023-03-23T17:40:02.380Z,57.58
2023-03-23T17:42:30.028Z,58.04
2023-03-23T17:44:57.025Z,58.37
2023-03-23T17:47:24.254Z,58.19
2023-03-23T17:49:51.627Z,59.07
2023-03-23T17:52:18.877Z,58.93
2023-03-23T17:54:46.020Z,59.02
2023-03-23T17:57:13.138Z,59.09
2023-03-23T17:59:40.295Z,59.42
2023-03-23T18:02:07.718Z,59.37
2023-03-23T18:04:36.771Z,59.78
2023-03-23T18:07:04.013Z,59.73
2023-03-23T18:09:31.308Z,59.69
2023-03-23T18:11:58.423Z,59.87
2023-03-23T18:14:25.596Z,59.80
2023-03-23T18:16:53.437Z,59.67
2023-03-23T18:19:20.490Z,60.14
2023-03-23T18:21:47.586Z,59.90
2023-03-23T18:24:14.838Z,60.52
2023-03-23T18:26:42.597Z,60.88
2023-03-23T18:29:09.554Z,61.01
2023-03-23T18:31:40.227Z,61.14
2023-03-23T18:34:08.017Z,60.85
2023-03-23T18:36:35.419Z,61.34
2023-03-23T18:39:04.096Z,61.58
2023-03-23T18:41:31.388Z,62.00
2023-03-23T18:43:58.343Z,61.62
2023-03-23T18:46:26.924Z,61.68
2023-03-23T18:48:54.131Z,61.65
2023-03-23T18:51:21.334Z,62.11
2023-03-23T18:53:48.470Z,62.04
2023-03-23T18:56:17.758Z,62.01
2023-03-23T18:58:45.801Z,62.53
2023-03-23T19:01:16.440Z,62.32
2023-03-23T19:03:44.774Z,61.93
2023-03-23T19:06:23.763Z,62.30
2023-03-23T19:08:52.311Z,61.93
2023-03-23T19:11:20.953Z,62.04
2023-03-23T19:14:00.408Z,61.91
2023-03-23T19:16:36.218Z,61.82
2023-03-23T19:19:05.708Z,61.71
2023-03-23T19:21:32.953Z,61.65
2023-03-23T19:24:01.425Z,61.82
2023-03-23T19:26:36.905Z,61.91
2023-03-23T19:31:48.813Z,61.45
2023-03-23T19:34:17.133Z,61.31
2023-03-23T19:36:54.490Z,61.32
2023-03-23T19:39:26.835Z,61.46
2023-03-23T19:41:53.985Z,61.69
2023-03-23T19:44:21.201Z,62.38
2023-03-23T19:46:48.419Z,62.25
2023-03-23T19:49:16.026Z,62.27
2023-03-23T19:51:43.094Z,62.48
2023-03-23T19:54:10.231Z,62.16
2023-03-23T19:56:38.440Z,62.73
2023-03-23T19:59:08.101Z,62.52
2023-03-23T20:01:35.022Z,62.72
2023-03-23T20:04:05.197Z,62.92
2023-03-23T20:06:37.700Z,63.02
2023-03-23T20:09:06.553Z,62.71
2023-03-23T20:11:34.587Z,63.18
2023-03-23T20:14:02.181Z,63.26
2023-03-23T20:16:29.391Z,63.17
2023-03-23T20:19:00.359Z,63.07
2023-03-23T20:21:27.641Z,63.45
2023-03-23T20:23:57.203Z,63.52
2023-03-23T20:26:37.673Z,63.92
2023-03-23T20:29:06.968Z,64.13
2023-03-23T20:31:37.767Z,63.88
2023-03-23T20:34:11.283Z,63.64
2023-03-23T20:36:42.364Z,64.25
2023-03-23T20:39:14.779Z,63.87
2023-03-23T20:41:43.687Z,63.83
2023-03-23T20:44:14.287Z,64.45
2023-03-23T20:46:46.513Z,64.46
2023-03-23T20:49:14.132Z,64.78
2023-03-23T20:51:41.683Z,64.85
2023-03-23T20:54:10.233Z,64.46
2023-03-23T20:56:37.694Z,64.60
2023-03-23T20:59:05.929Z,65.26
2023-03-23T21:01:37.208Z,65.14
2023-03-23T21:04:04.287Z,65.46
2023-03-23T21:06:31.544Z,65.82
2023-03-23T21:08:58.632Z,65.68
2023-03-23T21:11:27.212Z,66.08
2023-03-23T21:13:54.526Z,66.34
2023-03-23T21:16:24.260Z,66.14
2023-03-23T21:18:51.351Z,65.83
2023-03-23T21:21:18.612Z,65.80
2023-03-23T21:23:47.638Z,65.99
2023-03-23T21:26:17.190Z,66.16
2023-03-23T21:28:45.416Z,66.60
2023-03-23T21:31:13.814Z,66.68
2023-03-23T21:33:41.453Z,66.41
2023-03-23T21:36:08.629Z,66.64
2023-03-23T21:38:35.693Z,66.58
2023-03-23T21:41:08.372Z,66.79
2023-03-23T21:43:35.440Z,66.98
2023-03-23T21:46:09.092Z,67.32
2023-03-23T21:48:41.645Z,66.89
2023-03-23T21:51:13.634Z,67.33
2023-03-23T21:53:42.349Z,67.06
2023-03-23T21:56:11.436Z,67.42
2023-03-23T21:58:39.092Z,67.46
2023-03-23T22:01:07.061Z,67.66
2023-03-23T22:03:35.346Z,67.81
2023-03-23T22:06:15.205Z,67.80
2023-03-23T22:08:44.094Z,67.77
2023-03-23T22:11:14.515Z,68.49
2023-03-23T22:13:42.525Z,68.56
2023-03-23T22:16:13.542Z,68.30
2023-03-23T22:18:43.416Z,68.07
2023-03-23T22:21:12.227Z,68.16
2023-03-23T22:23:40.173Z,68.44
2023-03-23T22:26:09.412Z,68.54
2023-03-23T22:28:37.198Z,68.66
2023-03-23T22:31:08.712Z,68.76
2023-03-23T22:33:37.100Z,68.94
2023-03-23T22:36:06.836Z,68.89
2023-03-23T22:38:35.669Z,68.70
2023-03-23T22:41:04.869Z,69.02
2023-03-23T22:43:31.883Z,69.06
2023-03-23T22:45:59.636Z,69.47
2023-03-23T22:48:28.159Z,69.70
2023-03-23T22:50:55.565Z,69.76
2023-03-23T22:53:22.927Z,69.22
2023-03-23T22:55:53.489Z,69.74
2023-03-23T22:58:21.092Z,69.58
2023-03-23T23:00:51.191Z,69.43
2023-03-23T23:03:18.514Z,69.73
2023-03-23T23:05:50.323Z,70.01
2023-03-23T23:08:18.187Z,70.79
2023-03-23T23:10:48.090Z,70.64
2023-03-23T23:13:16.107Z,70.14
2023-03-23T23:15:47.317Z,70.50
2023-03-23T23:18:15.178Z,70.92
2023-03-23T23:20:43.544Z,70.71
2023-03-23T23:23:11.033Z,70.38
2023-03-23T23:25:38.366Z,70.32
2023-03-23T23:28:06.679Z,70.36
2023-03-23T23:30:34.774Z,70.46
2023-03-23T23:33:01.893Z,70.51
2023-03-23T23:35:29.315Z,70.53
2023-03-23T23:37:56.431Z,70.13
2023-03-23T23:40:23.684Z,70.03
2023-03-23T23:42:52.604Z,70.17
2023-03-23T23:45:20.049Z,70.51
2023-03-23T23:47:47.579Z,70.28
2023-03-23T23:50:23.132Z,70.29
2023-03-23T23:52:50.289Z,70.98
2023-03-23T23:55:18.692Z,70.55
2023-03-23T23:57:47.911Z,70.19
